Whyteleafe, United Kingdom
Current Conditions -  °F | °C
As of 8:50 AM on Wednesday 26 Nov 2014 (Local Time) from EGKB Reporting Station
Moderate Fog Moderate Fog  
Wind Chill: 45°   Ceiling: Unl
Heat Index: 45°   Visibility: 0.43mi
Dew Point: 43°   Wind: 2mph
Humidity: 93%   Direction: 80°E
Pressure: 29.88"   Gusts: NA
Location:  51.31°N, 0.08°W
Report Text: EGKB 260850Z 08002KT 0700 R21/0800 FG VV/// 07/06 Q1012
Loading
Personal Weather Stations






























Interactive Weather Map New forecast layout! Learn more

10-Day Weather Forecast

Advertisements
Track Severe Weather on mobile